EKCH

Copenhagen Kastrup Airport

Copenhagen, Denmark
METAR EKCH 280050Z 08011KT CAVOK 15/11 Q1024 NOSIG
Observed Flight Rules
May-28 @ 00:50 UTC (29 minutes ago) Visual Flight Rules
Wind Visibility Clouds
80° at 11 knots 10,000+ meters
  • Clear skies
Temperatures Readings
Current 15°C / 59°F
Dewpoint 11°C / 52°F
Humidity 77%
Altimeter 30.24" Hg
Pressure 1024 hPa
Elevation 5
METAR EKCH 280050Z 08011KT CAVOK 15/11 Q1024 NOSIG
Observed Flight Rules
May-28 @ 00:50 UTC
(29 minutes ago)
VFR
Wind Visibility
80° at 11 knots 10,000+ meters
Clouds
  • Clear skies
Temperature Dewpoint
15°C / 59°F 11°C / 52°F
Humidity Altimeter Pressure
77% 30.24" Hg 1024 hPa